Decoded METAR Reports


Created by using MetarWeather

Station Name Location Elevation Time Temperature Dew Point RH Heat Index Wind Visibility Pressure Sky Condition Weather Remarks METAR
Alexandroupolis  40.85N 25.92E  3m  31/01/2015 09:20:00  14.0C  11.0C  82%  N/A  46 km/h, 69 km/h gusts, S (190 degrees)  8000m  992.9 mb  Few clouds at 430m
Broken clouds at 760m
Broken clouds at 2700m
 
      LGAL 310720Z 19025G37KT 8000 FEW014 BKN025 BKN090 14/11 Q0993 
Andravida (Civ/A  37.92N 21.27E  12m  31/01/2015 09:20:00  14.0C  12.0C  88%  N/A  17 km/h, SSW (210 degrees)  8000m  997.0 mb  Few cumulus clouds at 550m
Broken clouds at 760m
Broken clouds at 2400m
 
Light Rain
 
   LGAD 310720Z 21009KT 8000 -RA FEW018TCU BKN025 BKN080 14/12 Q0997 
Araxos (Civ/Afb)  38.17N 21.42E  15m  31/01/2015 09:20:00  13.0C  13.0C  100%  N/A  24 km/h, WSW (240 degrees)  5000m  997.0 mb  Few cumulus clouds at 610m
Broken clouds at 760m
Overcast at 2400m
 
Rain
 
   LGRX 310720Z 24013KT 5000 RA FEW020TCU BKN025 OVC080 13/13 Q0997 
Athens/Elef-Ven  37.93N 23.95E  94m  31/01/2015 09:20:00  16.0C  10.0C  68%  N/A  30 km/h, SSW (210 degrees)  7000m  997.0 mb  Scattered clouds at 760m
Broken clouds at 2100m
 
      LGAV 310720Z 21016KT 7000 SCT025 BKN070 16/10 Q0997 TEMPO 5000KM 
Chios Airport  38.32N 26.12E  4m  31/01/2015 08:50:00  16.0C  8.0C  59%  N/A  37 km/h, 61 km/h gusts, SSW (200 degrees)  > 10000m  1000.0 mb  Few cumulus clouds at 610m
Scattered clouds at 910m
Overcast at 2400m
 
      LGHI 310650Z 20020G33KT 9999 FEW020TCU SCT030 OVC080 16/08 Q1000 
Elefsis (Hel-Afb  38.07N 23.55E  31m  31/01/2015 09:20:00  15.0C  8.0C  63%  N/A  7 km/h, NW (310 degrees)  > 10000m  997.0 mb  Few clouds at 760m
Broken clouds at 2100m
 
      LGEL 310720Z 31004KT 9999 FEW025 BKN070 15/08 Q0997 
Ioannis Kapodist  39.60N 19.92E  2m  31/01/2015 09:20:00  10.0C  9.0C  94%  N/A  11 km/h, ESE (110 degrees)  8000m  993.9 mb  Scattered clouds at 610m
Broken clouds at 1100m
Overcast at 2400m
 
Light Rain
 
   LGKR 310720Z 11006KT 8000 -RA SCT020 BKN035 OVC080 10/09 Q0994 NOSIG 
Iraklion (Civ/Af  35.32N 25.17E  39m  31/01/2015 09:20:00  16.0C  7.0C  55%  N/A  26 km/h, SSE (160 degrees)  > 10000m  1005.1 mb  Few clouds at 760m
 
      LGIR 310720Z 16014KT 9999 FEW025 16/07 Q1005 NOSIG 
Kalamata (Hel-Af  37.07N 22.02E  8m  31/01/2015 09:20:00  16.0C  11.0C  72%  N/A  22 km/h, SSE (160 degrees)  4000m  1000.0 mb  Few clouds at 240m
Scattered cumulus clouds at 610m
Broken clouds at 910m
 
Mist
 
   LGKL 310720Z 16012KT 4000 BR FEW008 SCT020TCU BKN030 16/11 Q1000 
Karpathos  35.42N 27.15E  20m  31/01/2015 08:50:00  17.0C  9.0C  59%  N/A  24 km/h, 43 km/h gusts, SSW (200 degrees)  > 10000m  1009.1 mb  Few clouds at 760m
Broken clouds at 5500m
 
      LGKP 310650Z 20013G23KT 9999 FEW025 BKN180 17/09 Q1009 
Kavala/Chrisoupo  40.92N 24.62E  5m  31/01/2015 09:20:00  13.0C  11.0C  88%  N/A  20 km/h, WSW (240 degrees)  > 10000m  992.9 mb  Few clouds at 300m
Broken clouds at 760m
Broken clouds at 2400m
 
      LGKV 310720Z 24011KT 9999 FEW010 BKN025 BKN080 13/11 Q0993 
Kefallinia  38.12N 20.50E  18m  31/01/2015 08:50:00  15.0C  12.0C  82%  N/A  9 km/h, SSW (200 degrees)  8000m  997.0 mb  Few clouds at 370m
Few cumulus clouds at 490m
Broken clouds at 760m
Overcast at 2400m
 
Light Rain
 
   LGKF 310650Z 20005KT 8000 -RA FEW012 FEW016TCU BKN025 OVC080 15/12 Q0997 
Kos Airport  36.80N 27.08E  130m  31/01/2015 09:20:00  16.0C  8.0C  59%  N/A  31 km/h, 50 km/h gusts, S (190 degrees)  > 10000m  1007.1 mb  Few cumulus clouds at 550m
Scattered clouds at 760m
Broken clouds at 2400m
 
      LGKO 310720Z 19017G27KT 9999 FEW018TCU SCT025 BKN080 16/08 Q1007 
Kozani (Civ/Army  40.28N 21.85E  630m  31/01/2015 08:50:00  4.0C  1.0C  81%  N/A  9 km/h, WNW (290 degrees)  > 10000m  994.9 mb  Broken clouds at 610m
Overcast at 2100m
 
      LGKZ 310650Z 29005KT 9999 BKN020 OVC070 04/01 Q0995 
Limnos Island Ar  39.92N 25.23E  5m  31/01/2015 09:20:00  16.0C  10.0C  68%  N/A  54 km/h, 74 km/h gusts, S (190 degrees)  > 10000m  993.9 mb  Few clouds at 610m
Broken clouds at 2400m
Broken clouds at 5500m
 
      LGLM 310720Z 19029G40KT 9999 FEW020 BKN080 BKN180 16/10 Q0994 
Mikonos Island  37.43N 25.35E  120m  31/01/2015 09:20:00  16.0C  10.0C  68%  N/A  31 km/h, 50 km/h gusts, S (180 degrees)  6000m  1000.0 mb  Scattered clouds at 910m
Broken clouds at 3000m
Broken clouds at 5500m
 
      LGMK 310720Z 18017G27KT 6000 SCT030 BKN100 BKN180 16/10 Q1000 
Mitilini  39.05N 26.60E  17m  31/01/2015 09:20:00  15.0C  9.0C  67%  N/A  41 km/h, 78 km/h gusts, SE (140 degrees)  9000m  1000.0 mb  Few cumulus clouds at 550m
Broken clouds at 610m
Overcast at 2400m
 
Light Rain
 
   LGMT 310720Z 14022G42KT 100V220 9000 -RA FEW018TCU BKN020 OVC080 15/09 Q1000 
Paros  37.00N 25.07E  36m  31/01/2015 08:50:00  17.0C  9.0C  59%  N/A  26 km/h, S (190 degrees)  > 10000m  1002.0 mb  Few clouds at 1200m
Scattered clouds at 2400m
 
      LGPA 310650Z 19014KT 9999 FEW040 SCT080 17/09 Q1002 
Preveza/Aktion  38.62N 20.77E  4m  31/01/2015 09:20:00  12.0C  10.0C  88%  N/A  13 km/h, NW (310 degrees)  9000m  995.9 mb  Few Cumulonimbus clouds at 550m
Few cumulus clouds at 610m
Scattered clouds at 910m
Overcast at 2400m
 
Light Rain with Thunderstorm
 
   LGPZ 310720Z 31007KT 9000 -TSRA FEW018CB FEW020TCU SCT030 OVC080 12/10 Q0996 
Rhodes/Diagoras  36.40N 28.08E  5m  31/01/2015 09:20:00  16.0C  9.0C  63%  N/A  15 km/h, 33 km/h gusts, S (190 degrees)  > 10000m  1010.2 mb  Few clouds at 300m
Few cumulus clouds at 550m
Broken clouds at 610m
Broken clouds at 2400m
 
      LGRP 310720Z 19008G18KT 9999 FEW010 FEW018TCU BKN020 BKN080 16/09 Q1010 WS ALL RWY NOSIG 
Samos Airport  37.68N 26.92E  6m  31/01/2015 09:20:00  14.0C  12.0C  88%  N/A  37 km/h, 56 km/h gusts, S (190 degrees)  > 10000m  1005.1 mb  Scattered clouds at 550m
Scattered clouds at 910m
Overcast at 2400m
 
      LGSM 310720Z 19020G30KT 9999 SCT018 SCT030 OVC080 14/12 Q1005 
Santorini Island  36.40N 25.48E  40m  31/01/2015 09:20:00  17.0C  9.0C  59%  N/A  31 km/h, 61 km/h gusts, SSE (160 degrees)  > 10000m  1004.1 mb  Few clouds at 910m
Broken clouds at 3700m
 
      LGSR 310720Z 16017G33KT 9999 FEW030 BKN120 17/09 Q1004 
Skiathos Island  39.18N 23.50E  15m  31/01/2015 08:50:00  15.0C  8.0C  63%  N/A  15 km/h, SW (220 degrees)  > 10000m  993.9 mb  Few clouds at 610m
Broken clouds at 1200m
Overcast at 5800m
 
      LGSK 310650Z 22008KT 9999 FEW020 BKN040 OVC190 15/08 Q0994 
Souda/Khania (Af  35.47N 24.12E  150m  31/01/2015 09:20:00  16.0C  5.0C  48%  N/A  7 km/h, NE (50 degrees)  > 10000m  1003.0 mb  Few clouds at 760m
Scattered clouds at 2700m
Broken clouds at 5500m
 
      LGSA 310720Z 05004KT 9999 FEW025 SCT090 BKN180 16/05 Q1003 
Syros  37.42N 24.95E  72m  31/01/2015 08:50:00  16.0C  10.0C  68%  N/A  41 km/h, 61 km/h gusts, SSW (210 degrees)  8000m  999.0 mb  Few clouds at 460m
 
      LGSO 310650Z 21022G33KT 8000 FEW015 16/10 Q0999 
Thessaloniki/Mik  40.52N 22.97E  7m  31/01/2015 09:20:00  10.0C  7.0C  82%  N/A  4 km/h, Variable  > 10000m  994.9 mb  Few clouds at 460m
Scattered clouds at 760m
Broken clouds at 2700m
 
      LGTS 310720Z VRB02KT 9999 FEW015 SCT025 BKN090 10/07 Q0995 NOSIG 
Zakinthos Airpor  37.75N 20.87E  3m  31/01/2015 08:50:00  15.0C  12.0C  82%  N/A  30 km/h, SW (230 degrees)  > 10000m  997.0 mb  Scattered clouds at 370m
Few cumulus clouds at 550m
Broken clouds at 610m
Overcast at 2400m
 
      LGZA 310650Z 23016KT 9999 SCT012 FEW018TCU BKN020 OVC080 15/12 Q0997